Delta Virtual Airport Information Service

Pittsburgh International Airport

ICAO: KPIT Country: United States
Latitude: 40.4915 Longitude: -80.2328
Latest Arrival : UAL1211 (KDEN-KPIT) Latest Departure : RPA6147 (E) (KPIT-KBOS)


WX CaptureLIVE
Data provided by noaa.gov | Fetched at 20:42:04

METAR : KPIT 250051Z 01009KT 10SM OVC033 08/01 A3015 RMK AO2 SLP223 T00780006 $

TAF : KPIT 242356Z 2500/2606 02005KT P6SM OVC035 FM250800 04006KT P6SM SCT070 FM251600 08008KT P6SM BKN060 FM260400 11004KT P6SM VCSH OVC030


Runway Data for KPIT
Data provided by openaviationdata.com

Runway ID Mag Var Hdg Length Elevation Surface ILS Freq ILS Id ILS Slope
10L -8 100° 10486 ft 1142 ft Asphalt 111.7 ILXB 3
10R -8 100° 11482 ft 1142 ft Concrete 108.9 IGUT 3
10C -8 100° 9693 ft 1142 ft Asphalt 110.95 IBGY 3
14 -8 144° 8098 ft 1142 ft Concrete -- -- --
28L -8 280° 11482 ft 1142 ft Concrete 108.9 IPFS 3
28R -8 280° 10486 ft 1142 ft Asphalt 111.7 IHFE 3
28C -8 280° 9693 ft 1142 ft Asphalt 110.95 IXXX 3
32 -8 324° 8098 ft 1142 ft Concrete 111.3 ITQW 3

Pittsburgh International Airport, United States
Use only for reference purposes



Not for navigational purposes.